URO173 ENZV-EKBI
Flight info
| Callsign | URO173 |
|---|---|
| Flight time | 0h 42m |
| Altitude | 29000 |
| Route | BIVKI DCT ELGIK DCT GELBA |
| Aircraft | A346/H-SDE2E3FGHIJ3J4J5M1RWXY/LB1D1 |
Departure
| Time | 2026-04-30 18:03 |
|---|---|
| Airport | Stavanger Airport, Sola (ENZV) |
Arrival
| Time | 2026-04-30 18:45 |
|---|---|
| Airport | Billund Airport (EKBI) |
| Time | Latitude | Longitude | Altitude | Speed | Heading |
|---|---|---|---|---|---|
| 2026-04-30 17:44 | 58.88482 | 5.63352 | 35 ft | 0 kts | 321° |
| 2026-04-30 17:59 | 58.88483 | 5.63349 | 37 ft | 1 kts | 306° |
| 2026-04-30 18:00 | 58.88181 | 5.63320 | 39 ft | 24 kts | 175° |
| 2026-04-30 18:00 | 58.87618 | 5.63291 | 39 ft | 32 kts | 179° |
| 2026-04-30 18:01 | 58.87126 | 5.63302 | 40 ft | 27 kts | 178° |
| 2026-04-30 18:02 | 58.87015 | 5.63793 | 44 ft | 8 kts | 4° |
| 2026-04-30 18:02 | 58.89004 | 5.63760 | 37 ft | 175 kts | 359° |
| 2026-04-30 18:03 | 58.92992 | 5.65047 | 1500 ft | 216 kts | 38° |
| 2026-04-30 18:04 | 58.93092 | 5.73520 | 2928 ft | 254 kts | 137° |
| 2026-04-30 18:05 | 58.86329 | 5.78191 | 5993 ft | 264 kts | 165° |
| 2026-04-30 18:06 | 58.79609 | 5.84620 | 9250 ft | 275 kts | 155° |
| 2026-04-30 18:07 | 58.72489 | 5.91428 | 11774 ft | 313 kts | 158° |
| 2026-04-30 18:08 | 58.66047 | 5.97168 | 12842 ft | 367 kts | 158° |
| 2026-04-30 18:09 | 58.56490 | 6.05596 | 15594 ft | 388 kts | 158° |
| 2026-04-30 18:10 | 58.46427 | 6.14390 | 18260 ft | 406 kts | 158° |
| 2026-04-30 18:11 | 58.35907 | 6.23507 | 20530 ft | 424 kts | 158° |
| 2026-04-30 18:11 | 58.27592 | 6.29930 | 22206 ft | 435 kts | 160° |
| 2026-04-30 18:12 | 58.19051 | 6.36408 | 23866 ft | 446 kts | 160° |
| 2026-04-30 18:13 | 58.13231 | 6.40782 | 24787 ft | 453 kts | 160° |
| 2026-04-30 18:13 | 58.05354 | 6.46667 | 26016 ft | 461 kts | 160° |
| 2026-04-30 18:14 | 58.02713 | 6.48633 | 26394 ft | 464 kts | 160° |
| 2026-04-30 18:15 | 57.93508 | 6.55461 | 27781 ft | 472 kts | 160° |
| 2026-04-30 18:15 | 57.84325 | 6.62237 | 29299 ft | 475 kts | 160° |
| 2026-04-30 18:16 | 57.79139 | 6.66049 | 29418 ft | 478 kts | 160° |
| 2026-04-30 18:16 | 57.72913 | 6.70605 | 29430 ft | 486 kts | 160° |
| 2026-04-30 18:17 | 57.66501 | 6.75267 | 29435 ft | 499 kts | 159° |
| 2026-04-30 18:18 | 57.56766 | 6.82333 | 29443 ft | 499 kts | 159° |
| 2026-04-30 18:18 | 57.50364 | 6.87372 | 29439 ft | 500 kts | 155° |
| 2026-04-30 18:19 | 57.44236 | 6.93598 | 29450 ft | 502 kts | 149° |
| 2026-04-30 18:19 | 57.38323 | 7.00477 | 29435 ft | 501 kts | 149° |
| 2026-04-30 18:20 | 57.32437 | 7.07232 | 29436 ft | 501 kts | 149° |
| 2026-04-30 18:20 | 57.27017 | 7.15292 | 29457 ft | 501 kts | 136° |
| 2026-04-30 18:21 | 57.22065 | 7.24401 | 29455 ft | 502 kts | 135° |
| 2026-04-30 18:21 | 57.17073 | 7.33463 | 29439 ft | 504 kts | 135° |
| 2026-04-30 18:22 | 57.12030 | 7.42413 | 29440 ft | 502 kts | 136° |
| 2026-04-30 18:22 | 57.04445 | 7.55698 | 29461 ft | 502 kts | 136° |
| 2026-04-30 18:23 | 56.99380 | 7.64508 | 29447 ft | 502 kts | 136° |
| 2026-04-30 18:23 | 56.94296 | 7.73305 | 29442 ft | 503 kts | 136° |
| 2026-04-30 18:24 | 56.86641 | 7.86501 | 29454 ft | 504 kts | 136° |
| 2026-04-30 18:25 | 56.81531 | 7.95265 | 29449 ft | 504 kts | 136° |
| 2026-04-30 18:25 | 56.73891 | 8.08302 | 29446 ft | 503 kts | 136° |
| 2026-04-30 18:26 | 56.66195 | 8.21355 | 29449 ft | 505 kts | 136° |
| 2026-04-30 18:27 | 56.58483 | 8.34361 | 29200 ft | 497 kts | 136° |
| 2026-04-30 18:27 | 56.55949 | 8.38620 | 28097 ft | 497 kts | 136° |
| 2026-04-30 18:28 | 56.50929 | 8.47026 | 25587 ft | 483 kts | 136° |
| 2026-04-30 18:28 | 56.48491 | 8.51096 | 24821 ft | 470 kts | 136° |
| 2026-04-30 18:28 | 56.43799 | 8.58910 | 22932 ft | 448 kts | 136° |
| 2026-04-30 18:29 | 56.41529 | 8.62684 | 21868 ft | 439 kts | 136° |
| 2026-04-30 18:29 | 56.34958 | 8.73561 | 18895 ft | 418 kts | 136° |
| 2026-04-30 18:30 | 56.30716 | 8.80558 | 16870 ft | 412 kts | 136° |
| 2026-04-30 18:30 | 56.26496 | 8.87497 | 15731 ft | 404 kts | 136° |
| 2026-04-30 18:31 | 56.24449 | 8.90856 | 15036 ft | 390 kts | 136° |
| 2026-04-30 18:31 | 56.20475 | 8.97359 | 14411 ft | 384 kts | 136° |
| 2026-04-30 18:32 | 56.16553 | 9.03763 | 13623 ft | 378 kts | 136° |
| 2026-04-30 18:32 | 56.14610 | 9.06931 | 13459 ft | 377 kts | 136° |
| 2026-04-30 18:32 | 56.10712 | 9.13266 | 13452 ft | 378 kts | 136° |
| 2026-04-30 18:33 | 56.08758 | 9.16429 | 13451 ft | 379 kts | 136° |
| 2026-04-30 18:33 | 56.04838 | 9.22772 | 13444 ft | 380 kts | 136° |
| 2026-04-30 18:33 | 56.02900 | 9.25903 | 12974 ft | 380 kts | 136° |
| 2026-04-30 18:34 | 56.00916 | 9.29107 | 12061 ft | 375 kts | 137° |
| 2026-04-30 18:34 | 55.97171 | 9.35132 | 10578 ft | 350 kts | 137° |
| 2026-04-30 18:34 | 55.95411 | 9.37960 | 9816 ft | 340 kts | 137° |
| 2026-04-30 18:35 | 55.93668 | 9.40747 | 9035 ft | 332 kts | 137° |
| 2026-04-30 18:35 | 55.91968 | 9.43466 | 8269 ft | 325 kts | 137° |
| 2026-04-30 18:35 | 55.90302 | 9.46127 | 7518 ft | 318 kts | 137° |
| 2026-04-30 18:36 | 55.87356 | 9.50830 | 6151 ft | 309 kts | 137° |
| 2026-04-30 18:36 | 55.84281 | 9.54525 | 4778 ft | 304 kts | 165° |
| 2026-04-30 18:37 | 55.82209 | 9.54680 | 4211 ft | 295 kts | 192° |
| 2026-04-30 18:37 | 55.80416 | 9.53217 | 3978 ft | 275 kts | 221° |
| 2026-04-30 18:37 | 55.79310 | 9.50586 | 3981 ft | 266 kts | 250° |
| 2026-04-30 18:37 | 55.79058 | 9.47363 | 4014 ft | 266 kts | 278° |
| 2026-04-30 18:38 | 55.79702 | 9.44312 | 4007 ft | 266 kts | 307° |
| 2026-04-30 18:38 | 55.81089 | 9.42196 | 3996 ft | 265 kts | 336° |
| 2026-04-30 18:38 | 55.82875 | 9.41540 | 3992 ft | 264 kts | 5° |
| 2026-04-30 18:38 | 55.84606 | 9.42502 | 3983 ft | 263 kts | 34° |
| 2026-04-30 18:39 | 55.85853 | 9.44838 | 3984 ft | 262 kts | 63° |
| 2026-04-30 18:39 | 55.86300 | 9.47950 | 3987 ft | 262 kts | 92° |
| 2026-04-30 18:39 | 55.85838 | 9.51050 | 3985 ft | 261 kts | 121° |
| 2026-04-30 18:39 | 55.84611 | 9.53299 | 3969 ft | 249 kts | 151° |
| 2026-04-30 18:40 | 55.83015 | 9.54090 | 3982 ft | 233 kts | 177° |
| 2026-04-30 18:40 | 55.81402 | 9.54022 | 3987 ft | 231 kts | 184° |
| 2026-04-30 18:40 | 55.79796 | 9.53791 | 3986 ft | 231 kts | 185° |
| 2026-04-30 18:40 | 55.78193 | 9.53533 | 3985 ft | 232 kts | 185° |
| 2026-04-30 18:41 | 55.76583 | 9.53172 | 3627 ft | 237 kts | 197° |
| 2026-04-30 18:41 | 55.75164 | 9.51638 | 3104 ft | 245 kts | 229° |
| 2026-04-30 18:41 | 55.74391 | 9.48949 | 2625 ft | 249 kts | 261° |
| 2026-04-30 18:41 | 55.74467 | 9.45948 | 2511 ft | 238 kts | 280° |
| 2026-04-30 18:42 | 55.74695 | 9.43114 | 2480 ft | 225 kts | 275° |
| 2026-04-30 18:42 | 55.74753 | 9.37911 | 2447 ft | 200 kts | 268° |
| 2026-04-30 18:42 | 55.74688 | 9.35471 | 2236 ft | 197 kts | 267° |
| 2026-04-30 18:45 | 55.74051 | 9.15741 | 225 ft | 71 kts | 267° |
| 2026-04-30 18:45 | 55.74026 | 9.15162 | 228 ft | 31 kts | 256° |
| 2026-04-30 18:45 | 55.73947 | 9.14844 | 231 ft | 28 kts | 241° |
| 2026-04-30 18:46 | 55.73867 | 9.14527 | 229 ft | 24 kts | 255° |
| 2026-04-30 18:46 | 55.73847 | 9.14278 | 230 ft | 19 kts | 265° |
| 2026-04-30 18:46 | 55.73842 | 9.14133 | 224 ft | 11 kts | 266° |